Time;durP1;ratioP1;P1;durP2;ratioP2;P2;SDS_P1;SDS_P2;PMS_P1;PMS_P2;Temp;Humidity;BMP_temperature;BMP_pressure;BME280_temperature;BME280_humidity;BME280_pressure;Samples;Min_cycle;Max_cycle;Signal;HPM_P1;HPM_P2
2023/04/07 00:00:25;;;;;;;8.80;3.03;;;2.50;99.90;;;;;;4888722;29;20870;-62
2023/04/07 00:02:53;;;;;;;4.55;2.67;;;2.50;99.90;;;;;;4891082;29;20514;-62
2023/04/07 00:05:20;;;;;;;3.72;2.42;;;2.50;99.90;;;;;;4887972;29;20654;-64
2023/04/07 00:07:46;;;;;;;4.28;3.88;;;2.50;99.90;;;;;;4888876;29;20081;-61
2023/04/07 00:10:22;;;;;;;3.53;2.78;;;2.50;99.90;;;;;;4873759;29;20393;-62
2023/04/07 00:12:49;;;;;;;5.05;2.60;;;2.50;99.90;;;;;;4892512;29;20052;-66
2023/04/07 00:15:16;;;;;;;5.70;3.03;;;2.50;99.90;;;;;;4889539;29;20049;-62
2023/04/07 00:17:43;;;;;;;4.90;2.65;;;2.50;99.90;;;;;;4889330;29;20068;-65
2023/04/07 00:20:11;;;;;;;3.97;3.45;;;2.50;99.90;;;;;;4891844;29;21005;-65
2023/04/07 00:22:37;;;;;;;7.50;4.20;;;2.50;99.90;;;;;;4891379;29;20267;-62
2023/04/07 00:25:05;;;;;;;7.22;3.80;;;2.50;99.90;;;;;;4891829;29;20049;-62
2023/04/07 00:27:32;;;;;;;6.78;4.40;;;2.50;99.90;;;;;;4893441;29;20064;-64
2023/04/07 00:29:58;;;;;;;7.43;5.43;;;2.50;99.90;;;;;;4889442;29;20068;-62
2023/04/07 00:32:25;;;;;;;7.25;4.47;;;2.50;99.90;;;;;;4889361;29;20048;-63
2023/04/07 00:34:52;;;;;;;9.85;5.55;;;2.50;99.90;;;;;;4890798;29;20052;-65
2023/04/07 00:37:20;;;;;;;12.65;5.80;;;2.50;99.90;;;;;;4888022;29;20063;-61
2023/04/07 00:39:47;;;;;;;13.25;6.22;;;2.50;99.90;;;;;;4890477;29;20062;-63
2023/04/07 00:42:14;;;;;;;15.95;9.75;;;2.50;99.90;;;;;;4879552;29;20056;-63
2023/04/07 00:44:41;;;;;;;11.75;7.43;;;2.50;99.90;;;;;;4890996;29;20052;-62
2023/04/07 00:47:08;;;;;;;18.77;7.93;;;2.50;99.90;;;;;;4888379;29;20056;-66
2023/04/07 00:49:37;;;;;;;11.75;6.43;;;2.50;99.90;;;;;;4887165;29;20056;-63
2023/04/07 00:52:05;;;;;;;10.82;7.57;;;2.50;99.90;;;;;;4889367;29;20041;-62
2023/04/07 00:54:32;;;;;;;15.77;8.15;;;2.50;99.90;;;;;;4891178;29;20059;-64
2023/04/07 00:57:00;;;;;;;13.27;8.68;;;2.50;99.90;;;;;;4892928;29;20048;-63
2023/04/07 00:59:30;;;;;;;20.25;10.65;;;2.50;99.90;;;;;;4889859;29;20252;-63
2023/04/07 01:02:02;;;;;;;12.57;8.98;;;2.50;99.90;;;;;;4872161;29;20061;-62
2023/04/07 01:04:40;;;;;;;19.02;9.93;;;2.50;99.90;;;;;;4890776;29;20797;-62
2023/04/07 01:07:48;;;;;;;14.32;9.45;;;2.50;99.90;;;;;;4890966;29;20661;-68
2023/04/07 01:10:21;;;;;;;27.17;12.10;;;2.50;99.90;;;;;;4888841;29;20419;-61
2023/04/07 01:13:10;;;;;;;20.27;10.73;;;2.50;99.90;;;;;;4873101;29;20074;-63
2023/04/07 01:15:38;;;;;;;16.15;10.52;;;2.50;99.90;;;;;;4884486;29;20571;-66
2023/04/07 01:18:19;;;;;;;20.55;13.35;;;2.50;99.90;;;;;;4889040;29;20107;-61
2023/04/07 01:20:49;;;;;;;20.25;11.55;;;2.50;99.90;;;;;;4886975;29;20049;-62
2023/04/07 01:23:41;;;;;;;16.87;9.77;;;2.50;99.90;;;;;;4897473;29;20048;-65
2023/04/07 01:26:28;;;;;;;16.67;9.88;;;2.50;99.90;;;;;;4891020;29;20134;-65
2023/04/07 01:29:11;;;;;;;19.90;11.55;;;2.60;99.90;;;;;;4888368;29;20040;-63
2023/04/07 01:31:40;;;;;;;23.27;11.32;;;2.60;99.90;;;;;;4887041;29;20084;-62
2023/04/07 01:34:11;;;;;;;19.17;11.90;;;2.60;99.90;;;;;;4889560;29;20056;-66
2023/04/07 01:36:38;;;;;;;19.58;11.68;;;2.50;99.90;;;;;;4887061;29;20058;-65
2023/04/07 01:39:06;;;;;;;22.55;10.90;;;2.60;99.90;;;;;;4892184;29;20052;-63
2023/04/07 01:41:34;;;;;;;20.90;12.48;;;2.60;99.90;;;;;;4889685;29;20131;-62
2023/04/07 01:44:02;;;;;;;21.63;11.40;;;2.60;99.90;;;;;;4876614;29;20052;-62
2023/04/07 01:46:29;;;;;;;18.85;11.27;;;2.60;99.90;;;;;;4888722;29;20086;-61
2023/04/07 01:48:56;;;;;;;21.00;13.05;;;2.60;99.90;;;;;;4880466;29;20051;-62
2023/04/07 01:51:26;;;;;;;24.45;11.63;;;2.60;99.90;;;;;;4887565;29;20060;-64
2023/04/07 01:53:53;;;;;;;31.35;14.52;;;2.60;99.90;;;;;;4889055;29;20709;-63
2023/04/07 01:56:20;;;;;;;25.92;13.68;;;2.60;99.90;;;;;;4890319;29;20053;-62
2023/04/07 01:58:50;;;;;;;34.42;13.30;;;2.60;99.90;;;;;;4891936;29;20410;-65
2023/04/07 02:01:20;;;;;;;30.57;14.53;;;2.60;99.90;;;;;;4889261;29;20112;-64
2023/04/07 02:04:15;;;;;;;29.02;13.27;;;2.60;99.90;;;;;;4889099;29;20044;-61
2023/04/07 02:06:48;;;;;;;22.70;12.73;;;2.60;99.90;;;;;;4886740;29;20735;-64
2023/04/07 02:09:20;;;;;;;26.83;13.77;;;2.60;99.90;;;;;;4887288;29;20472;-61
2023/04/07 02:11:50;;;;;;;21.88;12.45;;;2.60;99.90;;;;;;4881236;29;20089;-64
2023/04/07 02:14:20;;;;;;;28.15;12.52;;;2.60;99.90;;;;;;4887178;29;20125;-62
2023/04/07 02:17:04;;;;;;;36.42;13.77;;;2.60;99.90;;;;;;4876592;29;20229;-63
2023/04/07 02:19:34;;;;;;;37.67;16.65;;;2.60;99.90;;;;;;4879045;29;20077;-62
2023/04/07 02:22:04;;;;;;;;;;;2.60;99.90;;;;;;4888342;29;20052;-61
2023/04/07 02:24:31;;;;;;;35.65;12.75;;;2.60;99.90;;;;;;4888335;29;19923;-62
2023/04/07 02:27:00;;;;;;;40.75;14.60;;;2.60;99.90;;;;;;4890926;29;20499;-65
2023/04/07 02:29:27;;;;;;;37.30;15.27;;;2.60;99.90;;;;;;4877895;29;20160;-64
2023/04/07 02:31:55;;;;;;;30.50;12.18;;;2.60;99.90;;;;;;4880642;29;20447;-60
2023/04/07 02:34:22;;;;;;;30.30;14.80;;;2.60;99.90;;;;;;4892153;29;20059;-62
2023/04/07 02:36:49;;;;;;;31.55;13.00;;;2.70;99.90;;;;;;4891780;29;20210;-64
2023/04/07 02:39:16;;;;;;;30.00;13.77;;;2.60;99.90;;;;;;4885871;29;20055;-67
2023/04/07 02:41:43;;;;;;;36.08;14.43;;;2.70;99.90;;;;;;4888328;29;20060;-67
2023/04/07 02:44:09;;;;;;;28.33;13.55;;;2.70;99.90;;;;;;4888575;29;20053;-66
2023/04/07 02:46:36;;;;;;;37.10;15.13;;;2.70;99.90;;;;;;4889334;29;20054;-64
2023/04/07 02:49:03;;;;;;;29.48;13.57;;;2.70;99.90;;;;;;4890345;29;20439;-61
2023/04/07 02:51:30;;;;;;;30.30;12.55;;;2.70;99.90;;;;;;4890228;29;20052;-62
2023/04/07 02:53:57;;;;;;;24.85;10.60;;;2.70;99.90;;;;;;4887155;29;20402;-61
2023/04/07 02:56:24;;;;;;;23.08;10.82;;;2.70;99.90;;;;;;4885573;29;20448;-62
2023/04/07 02:58:51;;;;;;;26.10;12.38;;;2.70;99.90;;;;;;4884018;29;20151;-64
2023/04/07 03:01:19;;;;;;;24.50;10.93;;;2.70;99.90;;;;;;4887346;29;20123;-63
2023/04/07 03:03:46;;;;;;;27.20;11.27;;;2.70;99.90;;;;;;4869965;29;20049;-62
2023/04/07 03:06:17;;;;;;;22.73;11.75;;;2.70;99.90;;;;;;4882781;29;20148;-62
2023/04/07 03:09:03;;;;;;;28.08;11.75;;;2.70;99.90;;;;;;4883693;29;20049;-62
2023/04/07 03:11:30;;;;;;;26.77;12.20;;;2.70;99.90;;;;;;4886210;29;20143;-61
2023/04/07 03:13:59;;;;;;;26.65;12.15;;;2.70;99.90;;;;;;4876708;29;20072;-61
2023/04/07 03:16:27;;;;;;;21.85;11.57;;;2.70;99.90;;;;;;4889484;29;20056;-62
2023/04/07 03:19:00;;;;;;;17.20;9.05;;;2.70;99.90;;;;;;4886923;29;20063;-63
2023/04/07 03:21:30;;;;;;;24.85;11.00;;;2.70;99.90;;;;;;4867841;29;20096;-63
2023/04/07 03:23:57;;;;;;;23.52;11.18;;;2.70;99.90;;;;;;4889150;29;20044;-63
2023/04/07 03:26:24;;;;;;;24.73;10.25;;;2.70;99.90;;;;;;4884976;29;20140;-66
2023/04/07 03:28:51;;;;;;;24.05;12.05;;;2.70;99.90;;;;;;4889213;29;20064;-63
2023/04/07 03:31:18;;;;;;;23.35;11.48;;;2.70;99.90;;;;;;4869997;29;20143;-63
2023/04/07 03:33:49;;;;;;;15.32;9.82;;;2.70;99.90;;;;;;4885619;29;20072;-64
2023/04/07 03:36:17;;;;;;;24.52;12.60;;;2.70;99.90;;;;;;4887501;29;20147;-62
2023/04/07 03:38:48;;;;;;;21.77;11.55;;;2.70;99.90;;;;;;4869308;29;20087;-63
2023/04/07 03:41:17;;;;;;;24.33;11.68;;;2.70;99.90;;;;;;4874726;29;20052;-63
2023/04/07 03:43:43;;;;;;;15.55;9.65;;;2.70;99.90;;;;;;4875558;29;20044;-61
2023/04/07 03:46:10;;;;;;;20.58;10.30;;;2.70;99.90;;;;;;4890152;29;20084;-63
2023/04/07 03:48:37;;;;;;;21.52;11.93;;;2.70;99.90;;;;;;4889261;29;20097;-61
2023/04/07 03:51:09;;;;;;;23.88;11.95;;;2.70;99.90;;;;;;4868872;29;20053;-65
2023/04/07 03:53:37;;;;;;;25.92;12.10;;;2.70;99.90;;;;;;4883893;29;20053;-64
2023/04/07 03:56:25;;;;;;;22.80;11.55;;;2.70;99.90;;;;;;4893267;29;20064;-62
2023/04/07 03:58:55;;;;;;;26.38;11.38;;;2.80;99.90;;;;;;4885511;29;20056;-66
2023/04/07 04:01:27;;;;;;;19.17;10.75;;;2.80;99.90;;;;;;4890066;29;20143;-64
2023/04/07 04:03:55;;;;;;;23.98;11.18;;;2.80;99.90;;;;;;4872165;29;20583;-63
2023/04/07 04:06:26;;;;;;;17.75;10.80;;;2.80;99.90;;;;;;4879165;29;20518;-63
2023/04/07 04:08:59;;;;;;;22.23;11.15;;;2.80;99.90;;;;;;4888839;29;20557;-65
2023/04/07 04:11:26;;;;;;;23.88;11.00;;;2.80;99.90;;;;;;4892346;29;20147;-63
2023/04/07 04:13:59;;;;;;;23.45;11.73;;;2.80;99.90;;;;;;4876411;29;20056;-62
2023/04/07 04:16:26;;;;;;;22.08;11.98;;;2.80;99.90;;;;;;4876999;29;20492;-63
2023/04/07 04:18:57;;;;;;;;;;;2.80;99.90;;;;;;4876194;29;20483;-61
2023/04/07 04:21:26;;;;;;;25.88;11.77;;;2.80;99.90;;;;;;4874337;29;19934;-63
2023/04/07 04:23:53;;;;;;;23.55;12.02;;;2.90;99.90;;;;;;4868270;29;20058;-64
2023/04/07 04:26:24;;;;;;;22.50;11.60;;;2.80;99.90;;;;;;4890989;29;20048;-62
2023/04/07 04:28:55;;;;;;;21.02;10.15;;;2.90;99.90;;;;;;4891737;29;20764;-65
2023/04/07 04:31:22;;;;;;;19.70;10.05;;;2.90;99.90;;;;;;4889447;29;20486;-63
2023/04/07 04:33:49;;;;;;;23.92;9.88;;;2.90;99.90;;;;;;4889584;29;20443;-61
2023/04/07 04:36:16;;;;;;;23.60;10.98;;;3.00;99.90;;;;;;4893853;29;20147;-63
2023/04/07 04:38:44;;;;;;;28.30;12.55;;;3.00;99.90;;;;;;4893857;29;20044;-63
2023/04/07 04:41:15;;;;;;;24.08;11.35;;;3.00;99.90;;;;;;4890953;29;20104;-66
2023/04/07 04:43:42;;;;;;;20.10;10.57;;;3.00;99.90;;;;;;4887000;29;20049;-61
2023/04/07 04:46:12;;;;;;;17.98;10.13;;;3.00;99.90;;;;;;4888585;29;20044;-67
2023/04/07 04:48:42;;;;;;;21.27;10.45;;;3.00;99.90;;;;;;4886667;29;20083;-62
2023/04/07 04:51:08;;;;;;;24.80;12.30;;;3.00;99.90;;;;;;4885230;29;20044;-62
2023/04/07 04:53:37;;;;;;;24.83;11.27;;;3.00;99.90;;;;;;4887621;29;20053;-64
2023/04/07 04:56:06;;;;;;;15.73;10.05;;;3.10;99.90;;;;;;4888780;29;20144;-67
2023/04/07 04:58:45;;;;;;;21.63;12.05;;;3.10;99.90;;;;;;4872461;29;20056;-62
2023/04/07 05:01:19;;;;;;;24.20;11.57;;;3.10;99.90;;;;;;4870459;29;20072;-62
2023/04/07 05:03:52;;;;;;;17.13;10.80;;;3.10;99.90;;;;;;4867184;29;20091;-61
2023/04/07 05:06:23;;;;;;;20.27;12.60;;;3.10;99.90;;;;;;4872051;29;20076;-65
2023/04/07 05:08:51;;;;;;;20.90;10.32;;;3.10;99.90;;;;;;4873857;29;20059;-65
2023/04/07 05:11:23;;;;;;;18.60;10.88;;;3.10;99.90;;;;;;4884121;29;20056;-65
2023/04/07 05:13:52;;;;;;;18.50;11.00;;;3.10;99.90;;;;;;4887609;29;20052;-62
2023/04/07 05:16:19;;;;;;;21.98;11.40;;;3.20;99.90;;;;;;4889364;29;20063;-62
2023/04/07 05:18:46;;;;;;;25.92;13.10;;;3.20;99.90;;;;;;4883056;29;20093;-67
2023/04/07 05:21:14;;;;;;;23.65;13.75;;;3.20;99.90;;;;;;4890767;29;20080;-63
2023/04/07 05:23:41;;;;;;;17.75;11.65;;;3.20;99.90;;;;;;4886729;29;20208;-62
2023/04/07 05:26:09;;;;;;;21.75;12.20;;;3.20;99.90;;;;;;4876248;29;20569;-68
2023/04/07 05:28:36;;;;;;;24.55;12.23;;;3.30;99.90;;;;;;4874250;29;20092;-62
2023/04/07 05:31:08;;;;;;;26.92;12.23;;;3.30;99.90;;;;;;4889312;29;20172;-63
2023/04/07 05:33:35;;;;;;;20.95;11.43;;;3.30;99.90;;;;;;4874734;29;20056;-62
2023/04/07 05:36:02;;;;;;;21.77;13.27;;;3.30;99.90;;;;;;4884812;29;20125;-62
2023/04/07 05:38:30;;;;;;;20.27;11.55;;;3.40;99.90;;;;;;4885193;29;20075;-64
2023/04/07 05:41:03;;;;;;;23.92;12.95;;;3.40;99.90;;;;;;4874516;29;20207;-62
2023/04/07 05:43:33;;;;;;;26.83;15.03;;;3.40;99.90;;;;;;4888106;29;20052;-64
2023/04/07 05:46:00;;;;;;;28.63;14.25;;;3.40;99.90;;;;;;4870577;29;20415;-65
2023/04/07 05:48:27;;;;;;;21.20;12.82;;;3.40;99.90;;;;;;4889234;29;20049;-65
2023/04/07 05:50:54;;;;;;;21.38;13.02;;;3.40;99.90;;;;;;4889013;29;20444;-63
2023/04/07 05:53:21;;;;;;;22.40;12.50;;;3.40;99.90;;;;;;4886892;29;20052;-62
2023/04/07 05:55:48;;;;;;;26.38;14.65;;;3.40;99.90;;;;;;4882011;29;20067;-63
2023/04/07 05:58:25;;;;;;;26.40;14.55;;;3.50;99.90;;;;;;4875276;29;20048;-62
2023/04/07 06:00:53;;;;;;;19.88;12.23;;;3.50;99.90;;;;;;4886143;29;20058;-63
2023/04/07 06:03:20;;;;;;;22.58;13.95;;;3.50;99.90;;;;;;4888354;29;20128;-62
2023/04/07 06:06:03;;;;;;;22.17;13.48;;;3.50;99.90;;;;;;4873516;29;20048;-66
2023/04/07 06:08:30;;;;;;;25.45;13.55;;;3.50;99.90;;;;;;4866849;29;20265;-61
2023/04/07 06:10:57;;;;;;;22.52;11.35;;;3.50;99.90;;;;;;4868955;29;20066;-63
2023/04/07 06:13:25;;;;;;;30.23;13.88;;;3.50;99.90;;;;;;4867268;29;20059;-63
2023/04/07 06:15:55;;;;;;;23.80;14.30;;;3.60;99.90;;;;;;4867211;29;20080;-61
2023/04/07 06:18:22;;;;;;;24.52;13.38;;;3.60;99.90;;;;;;4887295;29;20056;-61
2023/04/07 06:20:49;;;;;;;18.70;13.45;;;3.60;99.90;;;;;;4888057;29;20426;-63
2023/04/07 06:23:17;;;;;;;23.83;13.05;;;3.60;99.90;;;;;;4887001;29;20737;-63
2023/04/07 06:25:44;;;;;;;22.80;13.25;;;3.60;99.90;;;;;;4891677;29;20052;-62
2023/04/07 06:28:11;;;;;;;20.60;13.40;;;3.60;99.90;;;;;;4884250;29;20059;-66
2023/04/07 06:30:39;;;;;;;21.80;11.10;;;3.60;99.90;;;;;;4877014;29;20066;-64
2023/04/07 06:33:10;;;;;;;20.17;11.55;;;3.60;99.90;;;;;;4885452;29;20059;-63
2023/04/07 06:35:38;;;;;;;19.95;11.80;;;3.60;99.90;;;;;;4884503;29;20698;-63
2023/04/07 06:38:06;;;;;;;21.75;11.05;;;3.60;99.90;;;;;;4885270;29;20057;-67
2023/04/07 06:40:33;;;;;;;12.57;10.00;;;3.70;99.90;;;;;;4886864;29;20141;-65
2023/04/07 06:43:00;;;;;;;22.63;12.80;;;3.70;99.90;;;;;;4886200;29;20048;-64
2023/04/07 06:45:36;;;;;;;17.92;11.55;;;3.70;99.90;;;;;;4888614;29;20112;-62
2023/04/07 06:48:02;;;;;;;18.52;12.02;;;3.70;99.90;;;;;;4886606;29;20570;-62
2023/04/07 06:50:29;;;;;;;20.30;12.05;;;3.70;99.90;;;;;;4886045;29;20048;-63
2023/04/07 06:52:56;;;;;;;17.00;10.93;;;3.80;99.90;;;;;;4889588;29;20048;-63
2023/04/07 06:55:23;;;;;;;19.98;13.20;;;3.80;99.90;;;;;;4884896;29;20080;-63
2023/04/07 06:57:51;;;;;;;16.48;10.27;;;3.80;99.90;;;;;;4886708;29;20132;-65
2023/04/07 07:00:18;;;;;;;17.50;12.05;;;3.80;99.90;;;;;;4888886;29;20057;-67
2023/04/07 07:02:45;;;;;;;14.18;9.38;;;3.80;99.90;;;;;;4885564;29;20517;-60
2023/04/07 07:05:12;;;;;;;13.50;10.30;;;3.90;99.90;;;;;;4887125;29;20048;-61
2023/04/07 07:07:39;;;;;;;15.15;10.65;;;3.90;99.90;;;;;;4887970;29;20526;-61
2023/04/07 07:10:09;;;;;;;12.15;8.93;;;3.90;99.90;;;;;;4886751;29;20055;-61
2023/04/07 07:12:36;;;;;;;15.85;10.25;;;3.90;99.90;;;;;;4888425;29;20049;-63
2023/04/07 07:15:03;;;;;;;11.85;8.90;;;4.00;99.90;;;;;;4886352;29;20055;-63
2023/04/07 07:17:30;;;;;;;14.05;9.02;;;4.00;99.90;;;;;;4886166;29;20045;-64
2023/04/07 07:19:57;;;;;;;17.77;9.52;;;4.00;99.90;;;;;;4886821;29;20534;-61
2023/04/07 07:22:24;;;;;;;14.05;9.80;;;4.00;99.90;;;;;;4886801;29;20169;-65
2023/04/07 07:24:51;;;;;;;14.88;9.48;;;4.10;99.90;;;;;;4886320;29;20072;-63
2023/04/07 07:27:18;;;;;;;13.90;9.07;;;4.10;99.90;;;;;;4882447;29;20184;-63
2023/04/07 07:29:45;;;;;;;11.27;8.18;;;4.10;99.90;;;;;;4887808;29;20053;-63
2023/04/07 07:32:11;;;;;;;15.52;9.05;;;4.10;99.90;;;;;;4886190;29;20057;-64
2023/04/07 07:34:38;;;;;;;13.80;8.73;;;4.10;99.90;;;;;;4890588;29;20067;-62
2023/04/07 07:37:05;;;;;;;11.48;8.55;;;4.20;99.90;;;;;;4891340;29;20067;-61
2023/04/07 07:39:32;;;;;;;10.68;9.05;;;4.20;99.90;;;;;;4895469;29;20405;-61
2023/04/07 07:42:00;;;;;;;10.93;7.90;;;4.20;99.90;;;;;;4887307;29;20480;-62
2023/04/07 07:44:27;;;;;;;10.85;8.13;;;4.20;99.90;;;;;;4890998;29;20049;-63
2023/04/07 07:46:55;;;;;;;12.65;8.32;;;4.20;99.90;;;;;;4890494;29;20052;-62
2023/04/07 07:49:22;;;;;;;11.10;8.52;;;4.20;99.90;;;;;;4891398;29;20931;-62
2023/04/07 07:51:49;;;;;;;11.68;7.82;;;4.20;99.90;;;;;;4889026;29;20143;-61
2023/04/07 07:54:16;;;;;;;12.25;8.52;;;4.20;99.90;;;;;;4890644;29;20065;-64
2023/04/07 07:56:43;;;;;;;10.18;7.43;;;4.20;99.90;;;;;;4873220;29;20059;-62
2023/04/07 07:59:10;;;;;;;11.10;7.80;;;4.30;99.90;;;;;;4889803;29;20078;-69
2023/04/07 08:01:36;;;;;;;10.80;7.47;;;4.30;99.90;;;;;;4891263;29;20139;-63
2023/04/07 08:04:03;;;;;;;12.20;6.88;;;4.30;99.90;;;;;;4885167;29;20048;-62
2023/04/07 08:06:30;;;;;;;12.35;8.02;;;4.30;99.90;;;;;;4894068;29;20054;-63
2023/04/07 08:08:57;;;;;;;8.75;7.75;;;4.40;99.90;;;;;;4889771;29;20052;-62
2023/04/07 08:11:24;;;;;;;8.27;6.78;;;4.40;99.90;;;;;;4889748;29;20148;-62
2023/04/07 08:13:52;;;;;;;11.25;7.53;;;4.40;99.90;;;;;;4886122;29;20049;-62
2023/04/07 08:16:20;;;;;;;11.90;7.90;;;4.40;99.90;;;;;;4873501;29;20112;-61
2023/04/07 08:18:48;;;;;;;10.55;6.07;;;4.40;99.90;;;;;;4891954;29;20052;-63
2023/04/07 08:21:15;;;;;;;10.27;6.25;;;4.40;99.90;;;;;;4890766;29;20515;-62
2023/04/07 08:23:42;;;;;;;9.57;7.70;;;4.50;99.90;;;;;;4889235;29;20056;-62
2023/04/07 08:26:09;;;;;;;7.85;6.95;;;4.50;99.90;;;;;;4890506;29;20056;-63
2023/04/07 08:28:36;;;;;;;11.73;8.05;;;4.50;99.90;;;;;;4889856;29;20064;-63
2023/04/07 08:31:03;;;;;;;9.57;7.05;;;4.50;99.90;;;;;;4890622;29;20491;-67
2023/04/07 08:33:30;;;;;;;10.02;7.68;;;4.60;99.90;;;;;;4884782;29;20558;-62
2023/04/07 08:35:57;;;;;;;7.80;5.60;;;4.60;99.90;;;;;;4888851;29;20048;-63
2023/04/07 08:38:24;;;;;;;12.95;6.85;;;4.60;99.90;;;;;;4887592;29;20088;-62
2023/04/07 08:40:59;;;;;;;8.73;7.07;;;4.70;99.90;;;;;;4890540;29;20055;-62
2023/04/07 08:43:27;;;;;;;13.95;8.80;;;4.60;99.90;;;;;;4887479;29;20068;-62
2023/04/07 08:45:56;;;;;;;9.27;7.53;;;4.60;99.90;;;;;;4887580;29;20055;-64
2023/04/07 08:48:25;;;;;;;10.48;8.48;;;4.70;99.90;;;;;;4893496;29;20044;-63
2023/04/07 08:50:53;;;;;;;10.35;7.63;;;4.70;99.90;;;;;;4892035;29;20430;-66
2023/04/07 08:53:28;;;;;;;8.48;6.80;;;4.70;99.90;;;;;;4890367;29;20055;-62
2023/04/07 08:55:55;;;;;;;12.38;8.02;;;4.70;99.90;;;;;;4890576;29;20057;-62
2023/04/07 08:58:22;;;;;;;11.20;9.10;;;4.80;99.90;;;;;;4889554;29;20055;-66
2023/04/07 09:00:50;;;;;;;9.80;7.05;;;4.80;99.90;;;;;;4893327;29;20507;-63
2023/04/07 09:03:18;;;;;;;16.38;8.00;;;4.80;99.90;;;;;;4887649;29;20112;-62
2023/04/07 09:05:46;;;;;;;13.73;9.40;;;4.80;99.90;;;;;;4887060;29;20048;-63
2023/04/07 09:08:13;;;;;;;16.73;7.72;;;4.80;99.90;;;;;;4891768;29;20531;-63
2023/04/07 09:10:39;;;;;;;16.23;9.38;;;4.90;99.90;;;;;;4890599;29;20060;-63
2023/04/07 09:13:06;;;;;;;12.63;8.65;;;5.00;99.90;;;;;;4890321;29;20127;-67
2023/04/07 09:15:33;;;;;;;13.20;9.30;;;5.00;99.90;;;;;;4887855;29;20048;-62
2023/04/07 09:18:04;;;;;;;14.57;8.43;;;5.00;99.90;;;;;;4885873;29;20048;-62
2023/04/07 09:20:54;;;;;;;12.02;8.23;;;5.00;99.90;;;;;;4889633;29;20467;-63
2023/04/07 09:23:33;;;;;;;11.40;8.02;;;5.00;99.90;;;;;;4891902;29;20139;-64
2023/04/07 09:26:23;;;;;;;10.38;8.48;;;5.00;99.90;;;;;;4887332;29;20056;-62
2023/04/07 09:29:01;;;;;;;11.70;8.30;;;5.00;99.90;;;;;;4895695;29;20533;-62
2023/04/07 09:31:52;;;;;;;10.48;8.50;;;5.00;99.90;;;;;;4888809;29;20056;-63
2023/04/07 09:34:28;;;;;;;;;;;5.00;99.90;;;;;;4887146;29;22288;-63
2023/04/07 09:36:56;;;;;;;11.52;8.52;;;5.10;99.90;;;;;;4889446;29;20020;-62
2023/04/07 09:39:24;;;;;;;14.35;9.52;;;5.00;99.90;;;;;;4890597;29;20056;-63
2023/04/07 09:41:51;;;;;;;17.48;9.98;;;5.00;99.90;;;;;;4887980;29;20090;-63
2023/04/07 09:44:19;;;;;;;17.48;9.77;;;5.00;99.90;;;;;;4887758;29;20119;-61
2023/04/07 09:46:57;;;;;;;14.52;9.60;;;5.00;99.90;;;;;;4889891;29;20048;-62
2023/04/07 09:49:25;;;;;;;10.80;8.15;;;5.00;99.90;;;;;;4888035;29;21359;-63
2023/04/07 09:51:56;;;;;;;13.45;9.00;;;5.00;99.90;;;;;;4889392;29;20217;-65
2023/04/07 09:54:34;;;;;;;13.55;9.77;;;5.00;99.90;;;;;;4889572;29;20063;-62
2023/04/07 09:57:03;;;;;;;12.07;8.40;;;5.00;99.90;;;;;;4889862;29;20066;-61
2023/04/07 09:59:31;;;;;;;12.35;9.27;;;5.10;99.90;;;;;;4890193;29;20250;-62
2023/04/07 10:01:59;;;;;;;15.25;10.48;;;5.10;99.90;;;;;;4887844;29;20063;-61
2023/04/07 10:04:28;;;;;;;12.20;8.85;;;5.00;99.90;;;;;;4889400;29;20052;-62
2023/04/07 10:06:56;;;;;;;17.52;9.88;;;5.00;99.90;;;;;;4887031;29;20063;-62
2023/04/07 10:09:25;;;;;;;14.00;10.88;;;5.00;99.90;;;;;;4889828;29;20060;-63
2023/04/07 10:11:56;;;;;;;14.25;9.27;;;5.00;99.90;;;;;;4886660;29;20058;-62
2023/04/07 10:14:30;;;;;;;19.63;9.80;;;5.00;99.90;;;;;;4888854;29;20161;-61
2023/04/07 10:16:59;;;;;;;17.83;10.82;;;4.90;99.90;;;;;;4886748;29;20051;-61
2023/04/07 10:19:30;;;;;;;19.13;11.88;;;4.80;99.90;;;;;;4888938;29;20100;-62
2023/04/07 10:21:58;;;;;;;12.50;9.80;;;4.60;99.90;;;;;;4885636;29;20238;-63
2023/04/07 10:24:37;;;;;;;13.70;9.77;;;4.60;99.90;;;;;;4871680;29;20052;-63
2023/04/07 10:27:10;;;;;;;18.92;10.40;;;4.60;99.90;;;;;;4888680;29;20108;-61
2023/04/07 10:29:41;;;;;;;14.75;9.63;;;4.50;99.90;;;;;;4887591;29;20685;-62
2023/04/07 10:32:08;;;;;;;12.25;9.70;;;4.50;99.90;;;;;;4887031;29;20175;-64
2023/04/07 10:34:52;;;;;;;15.45;9.85;;;4.50;99.90;;;;;;4874358;29;20052;-61
2023/04/07 10:37:21;;;;;;;16.63;10.45;;;4.40;99.90;;;;;;4884068;29;20304;-62
2023/04/07 10:39:50;;;;;;;20.02;10.93;;;4.40;99.90;;;;;;4888718;29;20062;-64
2023/04/07 10:42:35;;;;;;;13.55;10.30;;;4.40;99.90;;;;;;4889523;29;20206;-61
2023/04/07 10:45:06;;;;;;;14.90;10.50;;;4.40;99.90;;;;;;4887569;29;20051;-61
2023/04/07 10:47:35;;;;;;;17.65;11.52;;;4.30;99.90;;;;;;4890395;29;20056;-62
2023/04/07 10:50:21;;;;;;;17.75;11.65;;;4.30;99.90;;;;;;4886473;29;20061;-63
2023/04/07 10:53:09;;;;;;;19.45;11.35;;;4.30;99.90;;;;;;4888646;29;20056;-63
2023/04/07 10:55:43;;;;;;;17.63;12.43;;;4.30;99.90;;;;;;4886088;29;20099;-62
2023/04/07 10:58:17;;;;;;;21.23;11.85;;;4.20;99.90;;;;;;4886176;29;20052;-63
2023/04/07 11:00:56;;;;;;;19.15;10.75;;;4.30;99.90;;;;;;4891843;29;20450;-63
2023/04/07 11:03:24;;;;;;;23.67;11.40;;;4.20;99.90;;;;;;4894790;29;20049;-62
2023/04/07 11:05:51;;;;;;;19.67;12.02;;;4.20;99.90;;;;;;4893007;29;20049;-60
2023/04/07 11:08:35;;;;;;;22.70;11.98;;;4.20;99.90;;;;;;4893945;29;20063;-63
2023/04/07 11:11:07;;;;;;;20.63;13.23;;;4.20;99.90;;;;;;4890883;29;20845;-62
2023/04/07 11:13:42;;;;;;;19.25;13.77;;;4.10;99.90;;;;;;4895353;29;20056;-61
2023/04/07 11:16:09;;;;;;;18.33;11.73;;;4.10;99.90;;;;;;4893081;29;20048;-63
2023/04/07 11:18:37;;;;;;;30.73;14.90;;;4.10;99.90;;;;;;4879889;29;20451;-61
2023/04/07 11:21:05;;;;;;;20.08;13.73;;;4.10;99.90;;;;;;4894631;29;20040;-62
2023/04/07 11:23:39;;;;;;;21.95;11.85;;;4.10;99.90;;;;;;4893899;29;20052;-63
2023/04/07 11:26:08;;;;;;;27.73;14.40;;;4.10;99.90;;;;;;4890867;29;20067;-62
2023/04/07 11:28:45;;;;;;;20.00;12.77;;;4.10;99.90;;;;;;4898395;29;20062;-64
2023/04/07 11:31:20;;;;;;;23.05;12.38;;;4.20;99.90;;;;;;4890052;29;20135;-63
2023/04/07 11:33:52;;;;;;;21.55;11.85;;;4.20;99.90;;;;;;4892980;29;20049;-63
2023/04/07 11:36:30;;;;;;;19.90;11.52;;;4.20;99.90;;;;;;4894559;29;20059;-61
2023/04/07 11:38:58;;;;;;;20.33;12.73;;;4.20;99.90;;;;;;4895335;29;20074;-62
2023/04/07 11:41:31;;;;;;;20.10;11.50;;;4.20;99.90;;;;;;4891837;29;20838;-65
2023/04/07 11:44:04;;;;;;;21.83;13.00;;;4.20;99.90;;;;;;4890470;29;20510;-61
2023/04/07 11:46:31;;;;;;;22.67;13.68;;;4.20;99.90;;;;;;4895096;29;20499;-64
2023/04/07 11:49:14;;;;;;;17.38;12.40;;;4.20;99.90;;;;;;4895733;29;20048;-64
2023/04/07 11:51:43;;;;;;;21.48;12.73;;;4.10;99.90;;;;;;4892238;29;20045;-64
2023/04/07 11:54:10;;;;;;;19.15;13.02;;;4.20;99.90;;;;;;4894727;29;20135;-61
2023/04/07 11:56:43;;;;;;;22.25;12.93;;;4.10;99.90;;;;;;4894481;29;20044;-62
2023/04/07 11:59:19;;;;;;;22.80;14.27;;;4.20;99.90;;;;;;4893745;29;20143;-64
2023/04/07 12:01:48;;;;;;;19.80;12.70;;;4.20;99.90;;;;;;4892987;29;20068;-61
2023/04/07 12:04:16;;;;;;;23.33;12.55;;;4.30;99.90;;;;;;4891199;29;20491;-62
2023/04/07 12:06:45;;;;;;;21.65;12.30;;;4.30;99.90;;;;;;4893961;29;20056;-61
2023/04/07 12:09:29;;;;;;;23.90;13.35;;;4.20;99.90;;;;;;4894906;29;20051;-61
2023/04/07 12:11:57;;;;;;;22.83;12.38;;;4.30;99.90;;;;;;4889646;29;20056;-65
2023/04/07 12:14:26;;;;;;;20.83;11.82;;;4.20;99.90;;;;;;4890255;29;20060;-60
2023/04/07 12:16:55;;;;;;;20.95;13.45;;;4.30;99.90;;;;;;4890314;29;20049;-62
2023/04/07 12:19:27;;;;;;;22.45;13.20;;;4.30;99.90;;;;;;4891007;29;20098;-62
2023/04/07 12:21:55;;;;;;;17.20;12.13;;;4.30;99.90;;;;;;4889567;29;20135;-63
2023/04/07 12:24:23;;;;;;;27.13;15.15;;;4.40;99.90;;;;;;4889729;29;20052;-65
2023/04/07 12:26:49;;;;;;;28.38;14.45;;;4.40;99.90;;;;;;4892947;29;20096;-62
2023/04/07 12:29:18;;;;;;;25.13;14.07;;;4.40;99.90;;;;;;4888151;29;20522;-64
2023/04/07 12:31:46;;;;;;;23.98;13.43;;;4.40;99.90;;;;;;4888178;29;20440;-61
2023/04/07 12:34:16;;;;;;;;;;;4.40;99.90;;;;;;4891707;29;20061;-61
2023/04/07 12:36:43;;;;;;;24.90;14.27;;;4.40;99.90;;;;;;4891179;29;20381;-61
2023/04/07 12:39:10;;;;;;;22.40;14.25;;;4.40;99.90;;;;;;4891839;29;20061;-62
2023/04/07 12:41:38;;;;;;;21.95;13.98;;;4.50;99.90;;;;;;4890436;29;20139;-61
2023/04/07 12:44:05;;;;;;;18.08;12.30;;;4.60;99.90;;;;;;4888810;29;20448;-60
2023/04/07 12:46:32;;;;;;;22.52;13.25;;;4.60;99.90;;;;;;4886978;29;20067;-63
2023/04/07 12:48:59;;;;;;;24.58;12.13;;;4.60;99.90;;;;;;4891068;29;20154;-63
2023/04/07 12:51:27;;;;;;;15.45;10.27;;;4.70;99.90;;;;;;4890707;29;20052;-62
2023/04/07 12:53:54;;;;;;;17.67;11.93;;;4.70;99.90;;;;;;4887096;29;20090;-61
2023/04/07 12:56:21;;;;;;;23.48;13.38;;;4.60;99.90;;;;;;4886747;29;20582;-63